54.1°F
Current conditions from King Hill
Updated every 5 minutes
 
  Wednesday October 1, 2014

Station Historical Data
Daily Summary for November 13, 2011 Units:  Both    English   Metric
« Previous Day
Next Day »
Daily Weekly Monthly Yearly Custom
  High: Low: Average:
Temperature: 59.2 °F /  15.1 °C 40.2 °F /  4.6 °C 50.2 °F /  10.1 °C
Dew Point: 35.6 °F /  2 °C 30.5 °F /  -0.8 °C 32.9 °F /  0.5 °C
Humidity: 68% 35% 52%
Wind Speed: 14.0mph /  22.5km/h - 7mph /  11.3km/h
Wind Gust: 31.0mph /  49.9km/h - -
Wind- - SSW
Pressure: 29.99 in /  1015.5 hPa 29.72 in /  1006.3 hPa -
Precipitation: 0.00 in /  0 mm    
Historical Graphs
 
 
Tabular Data for November 13, 2011
Time Temperature Dew Point Pressure Wind Wind Speed Wind Gust Humidity Daily Rainfall
00:00 41.3 °F /  5.2 °C 31.2 °F /  -0.4 °C 29.96in /  1014.4hPa SSW 3.0mph /  4.8km/h 9.0mph /  14.5km/h 67% 0.00in /  0mm
00:05 41.2 °F /  5.1 °C 30.7 °F /  -0.7 °C 29.96in /  1014.4hPa SSW 2.0mph /  3.2km/h 9.0mph /  14.5km/h 66% 0.00in /  0mm
00:10 40.9 °F /  4.9 °C 30.8 °F /  -0.7 °C 29.96in /  1014.4hPa SSW 3.0mph /  4.8km/h 5.0mph /  8km/h 67% 0.00in /  0mm
00:15 40.6 °F /  4.8 °C 30.5 °F /  -0.8 °C 29.96in /  1014.4hPa SSW 3.0mph /  4.8km/h 6.0mph /  9.7km/h 67% 0.00in /  0mm
00:20 40.4 °F /  4.7 °C 30.7 °F /  -0.7 °C 29.96in /  1014.4hPa South 3.0mph /  4.8km/h 7.0mph /  11.3km/h 68% 0.00in /  0mm
00:25 40.2 °F /  4.6 °C 30.5 °F /  -0.8 °C 29.96in /  1014.4hPa SSW 3.0mph /  4.8km/h 7.0mph /  11.3km/h 68% 0.00in /  0mm
00:30 40.4 °F /  4.7 °C 30.7 °F /  -0.7 °C 29.96in /  1014.4hPa SSW 4.0mph /  6.4km/h 7.0mph /  11.3km/h 68% 0.00in /  0mm
00:35 40.7 °F /  4.8 °C 30.6 °F /  -0.8 °C 29.96in /  1014.4hPa SSW 5.0mph /  8km/h 7.0mph /  11.3km/h 67% 0.00in /  0mm
00:40 40.9 °F /  4.9 °C 30.8 °F /  -0.7 °C 29.96in /  1014.4hPa SSW 4.0mph /  6.4km/h 7.0mph /  11.3km/h 67% 0.00in /  0mm
00:45 40.9 °F /  4.9 °C 30.8 °F /  -0.7 °C 29.96in /  1014.4hPa South 6.0mph /  9.7km/h 9.0mph /  14.5km/h 67% 0.00in /  0mm
00:50 41.1 °F /  5.1 °C 31.0 °F /  -0.6 °C 29.96in /  1014.4hPa SSW 5.0mph /  8km/h 9.0mph /  14.5km/h 67% 0.00in /  0mm
00:55 41.2 °F /  5.1 °C 30.7 °F /  -0.7 °C 29.96in /  1014.4hPa SSW 5.0mph /  8km/h 9.0mph /  14.5km/h 66% 0.00in /  0mm
01:00 41.2 °F /  5.1 °C 30.7 °F /  -0.7 °C 29.96in /  1014.4hPa SSW 5.0mph /  8km/h 9.0mph /  14.5km/h 66% 0.00in /  0mm
01:05 41.3 °F /  5.2 °C 30.8 °F /  -0.7 °C 29.96in /  1014.4hPa SSW 4.0mph /  6.4km/h 10.0mph /  16.1km/h 66% 0.00in /  0mm
01:10 41.4 °F /  5.2 °C 30.9 °F /  -0.6 °C 29.96in /  1014.4hPa SSW 5.0mph /  8km/h 10.0mph /  16.1km/h 66% 0.00in /  0mm
01:15 41.5 °F /  5.3 °C 31.0 °F /  -0.6 °C 29.96in /  1014.4hPa SSW 5.0mph /  8km/h 9.0mph /  14.5km/h 66% 0.00in /  0mm
01:20 41.5 °F /  5.3 °C 31.0 °F /  -0.6 °C 29.96in /  1014.4hPa SSW 4.0mph /  6.4km/h 10.0mph /  16.1km/h 66% 0.00in /  0mm
01:25 41.5 °F /  5.3 °C 31.0 °F /  -0.6 °C 29.97in /  1014.8hPa SSW 6.0mph /  9.7km/h 10.0mph /  16.1km/h 66% 0.00in /  0mm
01:30 41.7 °F /  5.4 °C 30.8 °F /  -0.7 °C 29.97in /  1014.8hPa SSW 5.0mph /  8km/h 11.0mph /  17.7km/h 65% 0.00in /  0mm
01:35 41.7 °F /  5.4 °C 30.8 °F /  -0.7 °C 29.97in /  1014.8hPa SSW 4.0mph /  6.4km/h 11.0mph /  17.7km/h 65% 0.00in /  0mm
01:40 41.5 °F /  5.3 °C 30.6 °F /  -0.8 °C 29.97in /  1014.8hPa SSW 5.0mph /  8km/h 8.0mph /  12.9km/h 65% 0.00in /  0mm
01:50 41.3 °F /  5.2 °C 30.8 °F /  -0.7 °C 29.97in /  1014.8hPa SSW 6.0mph /  9.7km/h 9.0mph /  14.5km/h 66% 0.00in /  0mm
01:55 41.3 °F /  5.2 °C 30.8 °F /  -0.7 °C 29.98in /  1015.1hPa SSW 5.0mph /  8km/h 9.0mph /  14.5km/h 66% 0.00in /  0mm
02:00 41.2 °F /  5.1 °C 30.7 °F /  -0.7 °C 29.98in /  1015.1hPa SSW 4.0mph /  6.4km/h 9.0mph /  14.5km/h 66% 0.00in /  0mm
02:05 41.1 °F /  5.1 °C 30.6 °F /  -0.8 °C 29.98in /  1015.1hPa SSW 5.0mph /  8km/h 8.0mph /  12.9km/h 66% 0.00in /  0mm
02:10 41.1 °F /  5.1 °C 30.6 °F /  -0.8 °C 29.98in /  1015.1hPa SSW 3.0mph /  4.8km/h 8.0mph /  12.9km/h 66% 0.00in /  0mm
02:15 41.3 °F /  5.2 °C 30.8 °F /  -0.7 °C 29.98in /  1015.1hPa SSW 5.0mph /  8km/h 9.0mph /  14.5km/h 66% 0.00in /  0mm
02:20 41.5 °F /  5.3 °C 30.6 °F /  -0.8 °C 29.97in /  1014.8hPa SSW 5.0mph /  8km/h 10.0mph /  16.1km/h 65% 0.00in /  0mm
02:25 41.7 °F /  5.4 °C 30.8 °F /  -0.7 °C 29.98in /  1015.1hPa SSW 6.0mph /  9.7km/h 11.0mph /  17.7km/h 65% 0.00in /  0mm
02:30 41.8 °F /  5.4 °C 30.9 °F /  -0.6 °C 29.97in /  1014.8hPa SSW 6.0mph /  9.7km/h 11.0mph /  17.7km/h 65% 0.00in /  0mm
02:35 41.9 °F /  5.5 °C 30.6 °F /  -0.8 °C 29.97in /  1014.8hPa SSW 6.0mph /  9.7km/h 12.0mph /  19.3km/h 64% 0.00in /  0mm
02:40 42.2 °F /  5.7 °C 30.9 °F /  -0.6 °C 29.97in /  1014.8hPa SSW 7.0mph /  11.3km/h 12.0mph /  19.3km/h 64% 0.00in /  0mm
02:45 42.2 °F /  5.7 °C 30.9 °F /  -0.6 °C 29.97in /  1014.8hPa SSW 7.0mph /  11.3km/h 12.0mph /  19.3km/h 64% 0.00in /  0mm
02:50 42.1 °F /  5.6 °C 30.8 °F /  -0.7 °C 29.97in /  1014.8hPa SSW 7.0mph /  11.3km/h 13.0mph /  20.9km/h 64% 0.00in /  0mm
02:55 42.2 °F /  5.7 °C 30.9 °F /  -0.6 °C 29.97in /  1014.8hPa SSW 7.0mph /  11.3km/h 13.0mph /  20.9km/h 64% 0.00in /  0mm
03:00 42.2 °F /  5.7 °C 30.9 °F /  -0.6 °C 29.97in /  1014.8hPa SSW 6.0mph /  9.7km/h 13.0mph /  20.9km/h 64% 0.00in /  0mm
03:05 42.2 °F /  5.7 °C 30.9 °F /  -0.6 °C 29.97in /  1014.8hPa SSW 6.0mph /  9.7km/h 11.0mph /  17.7km/h 64% 0.00in /  0mm
03:10 42.2 °F /  5.7 °C 30.9 °F /  -0.6 °C 29.97in /  1014.8hPa SW 4.0mph /  6.4km/h 10.0mph /  16.1km/h 64% 0.00in /  0mm
03:15 41.8 °F /  5.4 °C 30.5 °F /  -0.8 °C 29.98in /  1015.1hPa SSW 4.0mph /  6.4km/h 10.0mph /  16.1km/h 64% 0.00in /  0mm
03:20 41.6 °F /  5.3 °C 30.7 °F /  -0.7 °C 29.98in /  1015.1hPa SSW 4.0mph /  6.4km/h 8.0mph /  12.9km/h 65% 0.00in /  0mm
03:25 41.4 °F /  5.2 °C 30.5 °F /  -0.8 °C 29.98in /  1015.1hPa SSW 4.0mph /  6.4km/h 8.0mph /  12.9km/h 65% 0.00in /  0mm
03:30 41.5 °F /  5.3 °C 30.6 °F /  -0.8 °C 29.98in /  1015.1hPa SSW 4.0mph /  6.4km/h 9.0mph /  14.5km/h 65% 0.00in /  0mm
03:35 41.6 °F /  5.3 °C 30.7 °F /  -0.7 °C 29.98in /  1015.1hPa SSW 6.0mph /  9.7km/h 10.0mph /  16.1km/h 65% 0.00in /  0mm
03:40 41.8 °F /  5.4 °C 30.9 °F /  -0.6 °C 29.98in /  1015.1hPa SSW 4.0mph /  6.4km/h 10.0mph /  16.1km/h 65% 0.00in /  0mm
03:45 41.9 °F /  5.5 °C 30.6 °F /  -0.8 °C 29.98in /  1015.1hPa SSW 6.0mph /  9.7km/h 10.0mph /  16.1km/h 64% 0.00in /  0mm
03:50 42.3 °F /  5.7 °C 31.0 °F /  -0.6 °C 29.98in /  1015.1hPa SSW 6.0mph /  9.7km/h 11.0mph /  17.7km/h 64% 0.00in /  0mm
03:55 42.5 °F /  5.8 °C 30.8 °F /  -0.7 °C 29.98in /  1015.1hPa SSW 7.0mph /  11.3km/h 11.0mph /  17.7km/h 63% 0.00in /  0mm
04:00 42.6 °F /  5.9 °C 30.9 °F /  -0.6 °C 29.98in /  1015.1hPa SSW 4.0mph /  6.4km/h 11.0mph /  17.7km/h 63% 0.00in /  0mm
04:05 42.5 °F /  5.8 °C 30.8 °F /  -0.7 °C 29.98in /  1015.1hPa SSW 4.0mph /  6.4km/h 10.0mph /  16.1km/h 63% 0.00in /  0mm
04:10 42.6 °F /  5.9 °C 30.9 °F /  -0.6 °C 29.98in /  1015.1hPa SSW 4.0mph /  6.4km/h 11.0mph /  17.7km/h 63% 0.00in /  0mm
04:15 42.6 °F /  5.9 °C 30.9 °F /  -0.6 °C 29.98in /  1015.1hPa SSW 3.0mph /  4.8km/h 11.0mph /  17.7km/h 63% 0.00in /  0mm
04:20 42.8 °F /  6 °C 31.1 °F /  -0.5 °C 29.99in /  1015.5hPa SSW 5.0mph /  8km/h 10.0mph /  16.1km/h 63% 0.00in /  0mm
04:25 42.9 °F /  6.1 °C 31.2 °F /  -0.4 °C 29.99in /  1015.5hPa SSW 5.0mph /  8km/h 10.0mph /  16.1km/h 63% 0.00in /  0mm
04:30 42.9 °F /  6.1 °C 31.2 °F /  -0.4 °C 29.98in /  1015.1hPa SSW 5.0mph /  8km/h 12.0mph /  19.3km/h 63% 0.00in /  0mm
04:35 43.1 °F /  6.2 °C 31.0 °F /  -0.6 °C 29.98in /  1015.1hPa SSW 4.0mph /  6.4km/h 12.0mph /  19.3km/h 62% 0.00in /  0mm
04:40 43.1 °F /  6.2 °C 31.0 °F /  -0.6 °C 29.98in /  1015.1hPa SSW 4.0mph /  6.4km/h 10.0mph /  16.1km/h 62% 0.00in /  0mm
04:45 43.0 °F /  6.1 °C 31.3 °F /  -0.4 °C 29.98in /  1015.1hPa SSW 4.0mph /  6.4km/h 10.0mph /  16.1km/h 63% 0.00in /  0mm
04:50 43.0 °F /  6.1 °C 31.3 °F /  -0.4 °C 29.98in /  1015.1hPa SSW 4.0mph /  6.4km/h 10.0mph /  16.1km/h 63% 0.00in /  0mm
04:54 43.0 °F /  6.1 °C 31.3 °F /  -0.4 °C 29.98in /  1015.1hPa SSW 3.0mph /  4.8km/h 9.0mph /  14.5km/h 63% 0.00in /  0mm
05:00 43.2 °F /  6.2 °C 31.5 °F /  -0.3 °C 29.98in /  1015.1hPa SSW 5.0mph /  8km/h 10.0mph /  16.1km/h 63% 0.00in /  0mm
05:05 43.3 °F /  6.3 °C 31.6 °F /  -0.2 °C 29.98in /  1015.1hPa SSW 5.0mph /  8km/h 10.0mph /  16.1km/h 63% 0.00in /  0mm
05:10 43.3 °F /  6.3 °C 31.6 °F /  -0.2 °C 29.98in /  1015.1hPa SSW 5.0mph /  8km/h 10.0mph /  16.1km/h 63% 0.00in /  0mm
05:14 43.4 °F /  6.3 °C 31.7 °F /  -0.2 °C 29.98in /  1015.1hPa SSW 6.0mph /  9.7km/h 12.0mph /  19.3km/h 63% 0.00in /  0mm
05:20 43.6 °F /  6.4 °C 31.4 °F /  -0.3 °C 29.99in /  1015.5hPa SSW 6.0mph /  9.7km/h 12.0mph /  19.3km/h 62% 0.00in /  0mm
05:25 43.8 °F /  6.6 °C 31.6 °F /  -0.2 °C 29.99in /  1015.5hPa SSW 4.0mph /  6.4km/h 11.0mph /  17.7km/h 62% 0.00in /  0mm
05:30 44.0 °F /  6.7 °C 31.8 °F /  -0.1 °C 29.99in /  1015.5hPa SSW 6.0mph /  9.7km/h 11.0mph /  17.7km/h 62% 0.00in /  0mm
05:40 44.3 °F /  6.8 °C 31.7 °F /  -0.2 °C 29.98in /  1015.1hPa SSW 4.0mph /  6.4km/h 11.0mph /  17.7km/h 61% 0.00in /  0mm
05:45 44.3 °F /  6.8 °C 31.7 °F /  -0.2 °C 29.98in /  1015.1hPa SSW 6.0mph /  9.7km/h 11.0mph /  17.7km/h 61% 0.00in /  0mm
05:50 44.6 °F /  7 °C 32.0 °F /  0 °C 29.98in /  1015.1hPa SSW 4.0mph /  6.4km/h 10.0mph /  16.1km/h 61% 0.00in /  0mm
05:55 44.7 °F /  7.1 °C 31.7 °F /  -0.2 °C 29.97in /  1014.8hPa SSW 6.0mph /  9.7km/h 10.0mph /  16.1km/h 60% 0.00in /  0mm
05:59 44.9 °F /  7.2 °C 31.9 °F /  -0.1 °C 29.98in /  1015.1hPa SSW 7.0mph /  11.3km/h 11.0mph /  17.7km/h 60% 0.00in /  0mm
06:05 45.0 °F /  7.2 °C 32.0 °F /  0 °C 29.98in /  1015.1hPa South 5.0mph /  8km/h 14.0mph /  22.5km/h 60% 0.00in /  0mm
06:10 44.9 °F /  7.2 °C 31.9 °F /  -0.1 °C 29.98in /  1015.1hPa SSW 6.0mph /  9.7km/h 14.0mph /  22.5km/h 60% 0.00in /  0mm
06:15 44.7 °F /  7.1 °C 31.7 °F /  -0.2 °C 29.98in /  1015.1hPa SSW 4.0mph /  6.4km/h 10.0mph /  16.1km/h 60% 0.00in /  0mm
06:19 44.7 °F /  7.1 °C 31.7 °F /  -0.2 °C 29.98in /  1015.1hPa SSW 6.0mph /  9.7km/h 11.0mph /  17.7km/h 60% 0.00in /  0mm
06:25 45.0 °F /  7.2 °C 32.0 °F /  0 °C 29.98in /  1015.1hPa SSW 6.0mph /  9.7km/h 13.0mph /  20.9km/h 60% 0.00in /  0mm
06:30 45.0 °F /  7.2 °C 32.0 °F /  0 °C 29.98in /  1015.1hPa SSW 7.0mph /  11.3km/h 13.0mph /  20.9km/h 60% 0.00in /  0mm
06:40 44.9 °F /  7.2 °C 31.9 °F /  -0.1 °C 29.98in /  1015.1hPa SSW 6.0mph /  9.7km/h 11.0mph /  17.7km/h 60% 0.00in /  0mm
06:45 45.0 °F /  7.2 °C 32.0 °F /  0 °C 29.98in /  1015.1hPa SSW 6.0mph /  9.7km/h 12.0mph /  19.3km/h 60% 0.00in /  0mm
06:50 44.9 °F /  7.2 °C 31.9 °F /  -0.1 °C 29.98in /  1015.1hPa SSW 6.0mph /  9.7km/h 12.0mph /  19.3km/h 60% 0.00in /  0mm
06:55 44.9 °F /  7.2 °C 32.3 °F /  0.2 °C 29.99in /  1015.5hPa SSW 6.0mph /  9.7km/h 12.0mph /  19.3km/h 61% 0.00in /  0mm
07:00 44.9 °F /  7.2 °C 32.3 °F /  0.2 °C 29.99in /  1015.5hPa SSW 6.0mph /  9.7km/h 12.0mph /  19.3km/h 61% 0.00in /  0mm
07:04 44.9 °F /  7.2 °C 31.9 °F /  -0.1 °C 29.99in /  1015.5hPa SSW 5.0mph /  8km/h 12.0mph /  19.3km/h 60% 0.00in /  0mm
07:10 45.0 °F /  7.2 °C 32.4 °F /  0.2 °C 29.99in /  1015.5hPa SSW 5.0mph /  8km/h 12.0mph /  19.3km/h 61% 0.00in /  0mm
07:15 45.0 °F /  7.2 °C 32.0 °F /  0 °C 29.99in /  1015.5hPa SSW 7.0mph /  11.3km/h 12.0mph /  19.3km/h 60% 0.00in /  0mm
07:20 45.3 °F /  7.4 °C 32.2 °F /  0.1 °C 29.99in /  1015.5hPa SSW 5.0mph /  8km/h 11.0mph /  17.7km/h 60% 0.00in /  0mm
07:24 45.5 °F /  7.5 °C 32.4 °F /  0.2 °C 29.98in /  1015.1hPa SSW 5.0mph /  8km/h 12.0mph /  19.3km/h 60% 0.00in /  0mm
07:30 45.8 °F /  7.7 °C 32.7 °F /  0.4 °C 29.98in /  1015.1hPa South 7.0mph /  11.3km/h 12.0mph /  19.3km/h 60% 0.00in /  0mm
07:35 45.8 °F /  7.7 °C 32.3 °F /  0.2 °C 29.98in /  1015.1hPa South 6.0mph /  9.7km/h 12.0mph /  19.3km/h 59% 0.00in /  0mm
07:39 45.8 °F /  7.7 °C 32.7 °F /  0.4 °C 29.98in /  1015.1hPa South 5.0mph /  8km/h 11.0mph /  17.7km/h 60% 0.00in /  0mm
07:45 45.9 °F /  7.7 °C 32.4 °F /  0.2 °C 29.98in /  1015.1hPa South 4.0mph /  6.4km/h 11.0mph /  17.7km/h 59% 0.00in /  0mm
07:50 46.0 °F /  7.8 °C 32.5 °F /  0.3 °C 29.98in /  1015.1hPa SSW 5.0mph /  8km/h 10.0mph /  16.1km/h 59% 0.00in /  0mm
07:54 46.3 °F /  7.9 °C 32.8 °F /  0.4 °C 29.98in /  1015.1hPa SSW 6.0mph /  9.7km/h 12.0mph /  19.3km/h 59% 0.00in /  0mm
07:59 46.5 °F /  8.1 °C 32.9 °F /  0.5 °C 29.98in /  1015.1hPa SSW 5.0mph /  8km/h 12.0mph /  19.3km/h 59% 0.00in /  0mm
08:05 46.8 °F /  8.2 °C 33.2 °F /  0.7 °C 29.98in /  1015.1hPa SSW 4.0mph /  6.4km/h 12.0mph /  19.3km/h 59% 0.00in /  0mm
08:10 47.0 °F /  8.3 °C 33.0 °F /  0.6 °C 29.98in /  1015.1hPa SSW 5.0mph /  8km/h 12.0mph /  19.3km/h 58% 0.00in /  0mm
08:14 47.3 °F /  8.5 °C 33.3 °F /  0.7 °C 29.98in /  1015.1hPa South 6.0mph /  9.7km/h 17.0mph /  27.4km/h 58% 0.00in /  0mm
08:19 47.4 °F /  8.6 °C 32.9 °F /  0.5 °C 29.97in /  1014.8hPa South 5.0mph /  8km/h 17.0mph /  27.4km/h 57% 0.00in /  0mm
08:25 47.5 °F /  8.6 °C 33.0 °F /  0.6 °C 29.98in /  1015.1hPa SSW 7.0mph /  11.3km/h 12.0mph /  19.3km/h 57% 0.00in /  0mm
08:30 47.6 °F /  8.7 °C 33.1 °F /  0.6 °C 29.97in /  1014.8hPa SSW 5.0mph /  8km/h 12.0mph /  19.3km/h 57% 0.00in /  0mm
08:40 47.8 °F /  8.8 °C 33.3 °F /  0.7 °C 29.97in /  1014.8hPa SSW 5.0mph /  8km/h 15.0mph /  24.1km/h 57% 0.00in /  0mm
08:44 48.0 °F /  8.9 °C 33.5 °F /  0.8 °C 29.97in /  1014.8hPa SSW 6.0mph /  9.7km/h 15.0mph /  24.1km/h 57% 0.00in /  0mm
08:50 48.2 °F /  9 °C 33.2 °F /  0.7 °C 29.97in /  1014.8hPa SSW 9.0mph /  14.5km/h 17.0mph /  27.4km/h 56% 0.00in /  0mm
08:55 48.3 °F /  9.1 °C 33.3 °F /  0.7 °C 29.97in /  1014.8hPa SSW 5.0mph /  8km/h 17.0mph /  27.4km/h 56% 0.00in /  0mm
08:59 48.5 °F /  9.2 °C 33.5 °F /  0.8 °C 29.97in /  1014.8hPa SSW 6.0mph /  9.7km/h 15.0mph /  24.1km/h 56% 0.00in /  0mm
09:05 48.7 °F /  9.3 °C 33.7 °F /  0.9 °C 29.97in /  1014.8hPa SSW 4.0mph /  6.4km/h 13.0mph /  20.9km/h 56% 0.00in /  0mm
09:10 48.8 °F /  9.3 °C 33.8 °F /  1 °C 29.96in /  1014.4hPa SSW 4.0mph /  6.4km/h 13.0mph /  20.9km/h 56% 0.00in /  0mm
09:15 48.9 °F /  9.4 °C 33.9 °F /  1.1 °C 29.96in /  1014.4hPa South 3.0mph /  4.8km/h 9.0mph /  14.5km/h 56% 0.00in /  0mm
09:20 49.2 °F /  9.6 °C 33.7 °F /  0.9 °C 29.96in /  1014.4hPa SSW 6.0mph /  9.7km/h 16.0mph /  25.7km/h 55% 0.00in /  0mm
09:25 49.5 °F /  9.7 °C 34.0 °F /  1.1 °C 29.96in /  1014.4hPa SSW 3.0mph /  4.8km/h 16.0mph /  25.7km/h 55% 0.00in /  0mm
09:29 49.9 °F /  9.9 °C 33.9 °F /  1.1 °C 29.96in /  1014.4hPa SSW 9.0mph /  14.5km/h 17.0mph /  27.4km/h 54% 0.00in /  0mm
09:35 50.3 °F /  10.2 °C 33.8 °F /  1 °C 29.96in /  1014.4hPa South 4.0mph /  6.4km/h 17.0mph /  27.4km/h 53% 0.00in /  0mm
09:40 50.5 °F /  10.3 °C 34.0 °F /  1.1 °C 29.96in /  1014.4hPa SSW 8.0mph /  12.9km/h 16.0mph /  25.7km/h 53% 0.00in /  0mm
09:45 50.8 °F /  10.4 °C 34.3 °F /  1.3 °C 29.95in /  1014.1hPa SW 4.0mph /  6.4km/h 14.0mph /  22.5km/h 53% 0.00in /  0mm
09:50 51.1 °F /  10.6 °C 34.1 °F /  1.2 °C 29.95in /  1014.1hPa SSW 4.0mph /  6.4km/h 11.0mph /  17.7km/h 52% 0.00in /  0mm
09:55 51.8 °F /  11 °C 34.7 °F /  1.5 °C 29.95in /  1014.1hPa SSW 5.0mph /  8km/h 12.0mph /  19.3km/h 52% 0.00in /  0mm
10:00 52.6 °F /  11.4 °C 35.0 °F /  1.7 °C 29.95in /  1014.1hPa SW 3.0mph /  4.8km/h 12.0mph /  19.3km/h 51% 0.00in /  0mm
10:05 53.4 °F /  11.9 °C 34.7 °F /  1.5 °C 29.94in /  1013.8hPa SW 6.0mph /  9.7km/h 12.0mph /  19.3km/h 49% 0.00in /  0mm
10:10 53.6 °F /  12 °C 34.9 °F /  1.6 °C 29.94in /  1013.8hPa SW 6.0mph /  9.7km/h 11.0mph /  17.7km/h 49% 0.00in /  0mm
10:14 53.3 °F /  11.8 °C 34.1 °F /  1.2 °C 29.94in /  1013.8hPa SW 5.0mph /  8km/h 13.0mph /  20.9km/h 48% 0.00in /  0mm
10:20 53.0 °F /  11.7 °C 33.8 °F /  1 °C 29.94in /  1013.8hPa SSW 6.0mph /  9.7km/h 13.0mph /  20.9km/h 48% 0.00in /  0mm
10:30 52.6 °F /  11.4 °C 34.5 °F /  1.4 °C 29.94in /  1013.8hPa SSW 5.0mph /  8km/h 14.0mph /  22.5km/h 50% 0.00in /  0mm
10:35 52.6 °F /  11.4 °C 34.5 °F /  1.4 °C 29.93in /  1013.4hPa SSW 3.0mph /  4.8km/h 14.0mph /  22.5km/h 50% 0.00in /  0mm
10:39 52.6 °F /  11.4 °C 34.5 °F /  1.4 °C 29.93in /  1013.4hPa SSW 4.0mph /  6.4km/h 12.0mph /  19.3km/h 50% 0.00in /  0mm
10:45 52.9 °F /  11.6 °C 34.8 °F /  1.6 °C 29.93in /  1013.4hPa SSW 4.0mph /  6.4km/h 11.0mph /  17.7km/h 50% 0.00in /  0mm
10:54 53.8 °F /  12.1 °C 35.1 °F /  1.7 °C 29.92in /  1013.1hPa SW 3.0mph /  4.8km/h 10.0mph /  16.1km/h 49% 0.00in /  0mm
10:59 54.2 °F /  12.3 °C 35.5 °F /  1.9 °C 29.92in /  1013.1hPa SW 2.0mph /  3.2km/h 12.0mph /  19.3km/h 49% 0.00in /  0mm
11:04 54.9 °F /  12.7 °C 35.1 °F /  1.7 °C 29.91in /  1012.8hPa SW 7.0mph /  11.3km/h 14.0mph /  22.5km/h 47% 0.00in /  0mm
11:10 55.1 °F /  12.8 °C 35.2 °F /  1.8 °C 29.91in /  1012.8hPa SSW 6.0mph /  9.7km/h 14.0mph /  22.5km/h 47% 0.00in /  0mm
11:15 55.0 °F /  12.8 °C 34.6 °F /  1.4 °C 29.90in /  1012.4hPa SW 5.0mph /  8km/h 14.0mph /  22.5km/h 46% 0.00in /  0mm
11:19 55.0 °F /  12.8 °C 35.1 °F /  1.7 °C 29.90in /  1012.4hPa SSW 4.0mph /  6.4km/h 14.0mph /  22.5km/h 47% 0.00in /  0mm
11:25 55.5 °F /  13.1 °C 35.1 °F /  1.7 °C 29.90in /  1012.4hPa SSW 6.0mph /  9.7km/h 17.0mph /  27.4km/h 46% 0.00in /  0mm
11:29 56.7 °F /  13.7 °C 35.6 °F /  2 °C 29.89in /  1012.1hPa SW 6.0mph /  9.7km/h 17.0mph /  27.4km/h 45% 0.00in /  0mm
11:34 57.5 °F /  14.2 °C 34.6 °F /  1.4 °C 29.89in /  1012.1hPa SSW 10.0mph /  16.1km/h 17.0mph /  27.4km/h 42% 0.00in /  0mm
11:40 56.8 °F /  13.8 °C 34.6 °F /  1.4 °C 29.88in /  1011.7hPa SSW 8.0mph /  12.9km/h 17.0mph /  27.4km/h 43% 0.00in /  0mm
11:45 56.3 °F /  13.5 °C 34.7 °F /  1.5 °C 29.88in /  1011.7hPa SSW 8.0mph /  12.9km/h 15.0mph /  24.1km/h 44% 0.00in /  0mm
11:50 55.9 °F /  13.3 °C 34.3 °F /  1.3 °C 29.88in /  1011.7hPa SSW 7.0mph /  11.3km/h 14.0mph /  22.5km/h 44% 0.00in /  0mm
11:54 55.8 °F /  13.2 °C 34.2 °F /  1.2 °C 29.87in /  1011.4hPa SW 7.0mph /  11.3km/h 14.0mph /  22.5km/h 44% 0.00in /  0mm
11:59 55.8 °F /  13.2 °C 33.6 °F /  0.9 °C 29.87in /  1011.4hPa SSW 7.0mph /  11.3km/h 16.0mph /  25.7km/h 43% 0.00in /  0mm
12:05 55.9 °F /  13.3 °C 33.7 °F /  0.9 °C 29.86in /  1011.1hPa SW 8.0mph /  12.9km/h 16.0mph /  25.7km/h 43% 0.00in /  0mm
12:10 56.1 °F /  13.4 °C 33.9 °F /  1.1 °C 29.86in /  1011.1hPa SSW 5.0mph /  8km/h 15.0mph /  24.1km/h 43% 0.00in /  0mm
12:14 56.4 °F /  13.6 °C 33.6 °F /  0.9 °C 29.85in /  1010.7hPa SSW 6.0mph /  9.7km/h 17.0mph /  27.4km/h 42% 0.00in /  0mm
12:19 56.7 °F /  13.7 °C 33.9 °F /  1.1 °C 29.85in /  1010.7hPa SSW 9.0mph /  14.5km/h 17.0mph /  27.4km/h 42% 0.00in /  0mm
12:25 57.1 °F /  13.9 °C 33.6 °F /  0.9 °C 29.84in /  1010.4hPa SSW 8.0mph /  12.9km/h 15.0mph /  24.1km/h 41% 0.00in /  0mm
12:29 57.3 °F /  14.1 °C 33.8 °F /  1 °C 29.84in /  1010.4hPa SSW 5.0mph /  8km/h 16.0mph /  25.7km/h 41% 0.00in /  0mm
12:35 57.6 °F /  14.2 °C 32.8 °F /  0.4 °C 29.84in /  1010.4hPa SSW 10.0mph /  16.1km/h 19.0mph /  30.6km/h 39% 0.00in /  0mm
12:40 57.7 °F /  14.3 °C 33.6 °F /  0.9 °C 29.83in /  1010hPa SSW 6.0mph /  9.7km/h 19.0mph /  30.6km/h 40% 0.00in /  0mm
12:45 57.7 °F /  14.3 °C 33.6 °F /  0.9 °C 29.83in /  1010hPa SSW 5.0mph /  8km/h 14.0mph /  22.5km/h 40% 0.00in /  0mm
12:50 57.7 °F /  14.3 °C 32.9 °F /  0.5 °C 29.82in /  1009.7hPa SSW 5.0mph /  8km/h 15.0mph /  24.1km/h 39% 0.00in /  0mm
12:55 57.5 °F /  14.2 °C 33.4 °F /  0.8 °C 29.82in /  1009.7hPa SSW 8.0mph /  12.9km/h 15.0mph /  24.1km/h 40% 0.00in /  0mm
12:59 57.4 °F /  14.1 °C 32.7 °F /  0.4 °C 29.82in /  1009.7hPa SSW 8.0mph /  12.9km/h 14.0mph /  22.5km/h 39% 0.00in /  0mm
13:04 57.5 °F /  14.2 °C 32.7 °F /  0.4 °C 29.82in /  1009.7hPa SW 2.0mph /  3.2km/h 16.0mph /  25.7km/h 39% 0.00in /  0mm
13:10 57.6 °F /  14.2 °C 32.2 °F /  0.1 °C 29.81in /  1009.4hPa SSW 7.0mph /  11.3km/h 16.0mph /  25.7km/h 38% 0.00in /  0mm
13:15 57.8 °F /  14.3 °C 32.4 °F /  0.2 °C 29.81in /  1009.4hPa SW 6.0mph /  9.7km/h 15.0mph /  24.1km/h 38% 0.00in /  0mm
13:19 58.2 °F /  14.6 °C 32.1 °F /  0.1 °C 29.80in /  1009hPa SSW 9.0mph /  14.5km/h 27.0mph /  43.5km/h 37% 0.00in /  0mm
13:25 58.3 °F /  14.6 °C 31.5 °F /  -0.3 °C 29.80in /  1009hPa SSW 10.0mph /  16.1km/h 27.0mph /  43.5km/h 36% 0.00in /  0mm
13:29 58.4 °F /  14.7 °C 31.6 °F /  -0.2 °C 29.80in /  1009hPa SSW 10.0mph /  16.1km/h 19.0mph /  30.6km/h 36% 0.00in /  0mm
13:35 58.6 °F /  14.8 °C 31.7 °F /  -0.2 °C 29.80in /  1009hPa SSW 11.0mph /  17.7km/h 22.0mph /  35.4km/h 36% 0.00in /  0mm
13:39 58.7 °F /  14.8 °C 31.8 °F /  -0.1 °C 29.79in /  1008.7hPa SW 9.0mph /  14.5km/h 22.0mph /  35.4km/h 36% 0.00in /  0mm
13:45 58.5 °F /  14.7 °C 32.3 °F /  0.2 °C 29.79in /  1008.7hPa SSW 8.0mph /  12.9km/h 18.0mph /  29km/h 37% 0.00in /  0mm
13:50 58.4 °F /  14.7 °C 32.2 °F /  0.1 °C 29.79in /  1008.7hPa SSW 9.0mph /  14.5km/h 23.0mph /  37km/h 37% 0.00in /  0mm
13:54 58.3 °F /  14.6 °C 32.8 °F /  0.4 °C 29.79in /  1008.7hPa SSW 6.0mph /  9.7km/h 23.0mph /  37km/h 38% 0.00in /  0mm
13:59 58.3 °F /  14.6 °C 32.1 °F /  0.1 °C 29.79in /  1008.7hPa SSW 8.0mph /  12.9km/h 19.0mph /  30.6km/h 37% 0.00in /  0mm
14:05 58.6 °F /  14.8 °C 31.7 °F /  -0.2 °C 29.79in /  1008.7hPa SSW 9.0mph /  14.5km/h 22.0mph /  35.4km/h 36% 0.00in /  0mm
14:10 58.6 °F /  14.8 °C 32.4 °F /  0.2 °C 29.79in /  1008.7hPa SSW 10.0mph /  16.1km/h 22.0mph /  35.4km/h 37% 0.00in /  0mm
14:14 58.7 °F /  14.8 °C 31.8 °F /  -0.1 °C 29.79in /  1008.7hPa SSW 9.0mph /  14.5km/h 22.0mph /  35.4km/h 36% 0.00in /  0mm
14:19 58.7 °F /  14.8 °C 31.8 °F /  -0.1 °C 29.79in /  1008.7hPa SSW 10.0mph /  16.1km/h 22.0mph /  35.4km/h 36% 0.00in /  0mm
14:25 58.7 °F /  14.8 °C 31.8 °F /  -0.1 °C 29.79in /  1008.7hPa SSW 10.0mph /  16.1km/h 24.0mph /  38.6km/h 36% 0.00in /  0mm
14:29 59.0 °F /  15 °C 31.4 °F /  -0.3 °C 29.79in /  1008.7hPa SSW 13.0mph /  20.9km/h 24.0mph /  38.6km/h 35% 0.00in /  0mm
14:35 59.0 °F /  15 °C 31.4 °F /  -0.3 °C 29.79in /  1008.7hPa SSW 10.0mph /  16.1km/h 23.0mph /  37km/h 35% 0.00in /  0mm
14:39 59.0 °F /  15 °C 32.1 °F /  0.1 °C 29.79in /  1008.7hPa SSW 7.0mph /  11.3km/h 22.0mph /  35.4km/h 36% 0.00in /  0mm
14:45 59.0 °F /  15 °C 32.8 °F /  0.4 °C 29.78in /  1008.4hPa SSW 10.0mph /  16.1km/h 22.0mph /  35.4km/h 37% 0.00in /  0mm
14:49 59.0 °F /  15 °C 32.1 °F /  0.1 °C 29.78in /  1008.4hPa SSW 10.0mph /  16.1km/h 22.0mph /  35.4km/h 36% 0.00in /  0mm
14:54 59.0 °F /  15 °C 32.8 °F /  0.4 °C 29.79in /  1008.7hPa SSW 9.0mph /  14.5km/h 20.0mph /  32.2km/h 37% 0.00in /  0mm
15:00 59.2 °F /  15.1 °C 33.6 °F /  0.9 °C 29.79in /  1008.7hPa SW 6.0mph /  9.7km/h 20.0mph /  32.2km/h 38% 0.00in /  0mm
15:04 59.2 °F /  15.1 °C 33.6 °F /  0.9 °C 29.79in /  1008.7hPa SSW 8.0mph /  12.9km/h 19.0mph /  30.6km/h 38% 0.00in /  0mm
15:09 59.0 °F /  15 °C 32.8 °F /  0.4 °C 29.78in /  1008.4hPa SSW 14.0mph /  22.5km/h 25.0mph /  40.2km/h 37% 0.00in /  0mm
15:14 58.1 °F /  14.5 °C 33.3 °F /  0.7 °C 29.79in /  1008.7hPa SSW 9.0mph /  14.5km/h 25.0mph /  40.2km/h 39% 0.00in /  0mm
15:20 57.5 °F /  14.2 °C 33.4 °F /  0.8 °C 29.79in /  1008.7hPa SSW 12.0mph /  19.3km/h 21.0mph /  33.8km/h 40% 0.00in /  0mm
15:25 57.0 °F /  13.9 °C 32.9 °F /  0.5 °C 29.78in /  1008.4hPa SW 13.0mph /  20.9km/h 23.0mph /  37km/h 40% 0.00in /  0mm
15:34 56.4 °F /  13.6 °C 33.0 °F /  0.6 °C 29.78in /  1008.4hPa SSW 8.0mph /  12.9km/h 27.0mph /  43.5km/h 41% 0.00in /  0mm
15:40 56.2 °F /  13.4 °C 33.4 °F /  0.8 °C 29.78in /  1008.4hPa SW 11.0mph /  17.7km/h 27.0mph /  43.5km/h 42% 0.00in /  0mm
15:44 56.1 °F /  13.4 °C 33.3 °F /  0.7 °C 29.78in /  1008.4hPa SSW 8.0mph /  12.9km/h 23.0mph /  37km/h 42% 0.00in /  0mm
15:49 55.9 °F /  13.3 °C 33.1 °F /  0.6 °C 29.78in /  1008.4hPa SW 12.0mph /  19.3km/h 22.0mph /  35.4km/h 42% 0.00in /  0mm
15:55 55.8 °F /  13.2 °C 33.1 °F /  0.6 °C 29.78in /  1008.4hPa SSW 10.0mph /  16.1km/h 22.0mph /  35.4km/h 42% 0.00in /  0mm
15:59 55.8 °F /  13.2 °C 33.1 °F /  0.6 °C 29.77in /  1008hPa SSW 12.0mph /  19.3km/h 23.0mph /  37km/h 42% 0.00in /  0mm
16:04 55.5 °F /  13.1 °C 33.4 °F /  0.8 °C 29.77in /  1008hPa SSW 6.0mph /  9.7km/h 23.0mph /  37km/h 43% 0.00in /  0mm
16:10 55.3 °F /  12.9 °C 33.2 °F /  0.7 °C 29.76in /  1007.7hPa SSW 10.0mph /  16.1km/h 19.0mph /  30.6km/h 43% 0.00in /  0mm
16:14 55.3 °F /  12.9 °C 33.2 °F /  0.7 °C 29.76in /  1007.7hPa SW 12.0mph /  19.3km/h 22.0mph /  35.4km/h 43% 0.00in /  0mm
16:19 55.3 °F /  12.9 °C 33.2 °F /  0.7 °C 29.76in /  1007.7hPa SSW 9.0mph /  14.5km/h 22.0mph /  35.4km/h 43% 0.00in /  0mm
16:24 55.1 °F /  12.8 °C 33.0 °F /  0.6 °C 29.76in /  1007.7hPa SSW 7.0mph /  11.3km/h 21.0mph /  33.8km/h 43% 0.00in /  0mm
16:30 55.0 °F /  12.8 °C 32.9 °F /  0.5 °C 29.75in /  1007.3hPa SSW 6.0mph /  9.7km/h 20.0mph /  32.2km/h 43% 0.00in /  0mm
16:34 55.0 °F /  12.8 °C 32.9 °F /  0.5 °C 29.76in /  1007.7hPa SSW 8.0mph /  12.9km/h 20.0mph /  32.2km/h 43% 0.00in /  0mm
16:39 54.9 °F /  12.7 °C 33.4 °F /  0.8 °C 29.76in /  1007.7hPa SSW 6.0mph /  9.7km/h 17.0mph /  27.4km/h 44% 0.00in /  0mm
16:44 54.8 °F /  12.7 °C 33.3 °F /  0.7 °C 29.76in /  1007.7hPa SSW 5.0mph /  8km/h 16.0mph /  25.7km/h 44% 0.00in /  0mm
16:50 54.7 °F /  12.6 °C 33.2 °F /  0.7 °C 29.76in /  1007.7hPa SSW 9.0mph /  14.5km/h 15.0mph /  24.1km/h 44% 0.00in /  0mm
16:54 54.7 °F /  12.6 °C 33.2 °F /  0.7 °C 29.76in /  1007.7hPa SW 9.0mph /  14.5km/h 21.0mph /  33.8km/h 44% 0.00in /  0mm
16:59 54.6 °F /  12.6 °C 33.1 °F /  0.6 °C 29.76in /  1007.7hPa SSW 8.0mph /  12.9km/h 21.0mph /  33.8km/h 44% 0.00in /  0mm
17:04 54.6 °F /  12.6 °C 33.1 °F /  0.6 °C 29.76in /  1007.7hPa SW 5.0mph /  8km/h 17.0mph /  27.4km/h 44% 0.00in /  0mm
17:10 54.6 °F /  12.6 °C 33.7 °F /  0.9 °C 29.76in /  1007.7hPa SSW 8.0mph /  12.9km/h 19.0mph /  30.6km/h 45% 0.00in /  0mm
17:14 54.4 °F /  12.4 °C 33.5 °F /  0.8 °C 29.76in /  1007.7hPa SSW 9.0mph /  14.5km/h 20.0mph /  32.2km/h 45% 0.00in /  0mm
17:19 54.3 °F /  12.4 °C 33.4 °F /  0.8 °C 29.76in /  1007.7hPa SW 7.0mph /  11.3km/h 20.0mph /  32.2km/h 45% 0.00in /  0mm
17:25 54.3 °F /  12.4 °C 33.4 °F /  0.8 °C 29.76in /  1007.7hPa SSW 9.0mph /  14.5km/h 19.0mph /  30.6km/h 45% 0.00in /  0mm
17:30 54.2 °F /  12.3 °C 33.3 °F /  0.7 °C 29.76in /  1007.7hPa SSW 8.0mph /  12.9km/h 21.0mph /  33.8km/h 45% 0.00in /  0mm
17:39 54.0 °F /  12.2 °C 33.7 °F /  0.9 °C 29.76in /  1007.7hPa SSW 7.0mph /  11.3km/h 18.0mph /  29km/h 46% 0.00in /  0mm
17:44 53.9 °F /  12.2 °C 33.6 °F /  0.9 °C 29.76in /  1007.7hPa SSW 7.0mph /  11.3km/h 16.0mph /  25.7km/h 46% 0.00in /  0mm
17:49 53.7 °F /  12.1 °C 34.0 °F /  1.1 °C 29.76in /  1007.7hPa SSW 6.0mph /  9.7km/h 15.0mph /  24.1km/h 47% 0.00in /  0mm
17:54 53.5 °F /  11.9 °C 33.8 °F /  1 °C 29.76in /  1007.7hPa SSW 7.0mph /  11.3km/h 16.0mph /  25.7km/h 47% 0.00in /  0mm
17:59 53.4 °F /  11.9 °C 33.7 °F /  0.9 °C 29.76in /  1007.7hPa SSW 6.0mph /  9.7km/h 16.0mph /  25.7km/h 47% 0.00in /  0mm
18:05 53.4 °F /  11.9 °C 33.7 °F /  0.9 °C 29.77in /  1008hPa SW 9.0mph /  14.5km/h 16.0mph /  25.7km/h 47% 0.00in /  0mm
18:14 53.5 °F /  11.9 °C 33.8 °F /  1 °C 29.77in /  1008hPa SW 7.0mph /  11.3km/h 17.0mph /  27.4km/h 47% 0.00in /  0mm
18:19 53.4 °F /  11.9 °C 34.2 °F /  1.2 °C 29.77in /  1008hPa SW 7.0mph /  11.3km/h 17.0mph /  27.4km/h 48% 0.00in /  0mm
18:25 53.3 °F /  11.8 °C 34.1 °F /  1.2 °C 29.77in /  1008hPa SSW 4.0mph /  6.4km/h 12.0mph /  19.3km/h 48% 0.00in /  0mm
18:29 53.3 °F /  11.8 °C 34.1 °F /  1.2 °C 29.77in /  1008hPa SSW 7.0mph /  11.3km/h 12.0mph /  19.3km/h 48% 0.00in /  0mm
18:35 53.3 °F /  11.8 °C 34.1 °F /  1.2 °C 29.77in /  1008hPa SSW 6.0mph /  9.7km/h 18.0mph /  29km/h 48% 0.00in /  0mm
18:39 53.4 °F /  11.9 °C 34.2 °F /  1.2 °C 29.77in /  1008hPa SSW 7.0mph /  11.3km/h 18.0mph /  29km/h 48% 0.00in /  0mm
18:44 53.4 °F /  11.9 °C 34.2 °F /  1.2 °C 29.78in /  1008.4hPa SSW 8.0mph /  12.9km/h 23.0mph /  37km/h 48% 0.00in /  0mm
18:49 53.4 °F /  11.9 °C 34.2 °F /  1.2 °C 29.78in /  1008.4hPa SSW 11.0mph /  17.7km/h 23.0mph /  37km/h 48% 0.00in /  0mm
18:54 53.4 °F /  11.9 °C 34.2 °F /  1.2 °C 29.78in /  1008.4hPa SSW 6.0mph /  9.7km/h 18.0mph /  29km/h 48% 0.00in /  0mm
18:59 53.3 °F /  11.8 °C 34.1 °F /  1.2 °C 29.78in /  1008.4hPa SSW 8.0mph /  12.9km/h 17.0mph /  27.4km/h 48% 0.00in /  0mm
19:04 53.2 °F /  11.8 °C 34.0 °F /  1.1 °C 29.78in /  1008.4hPa SW 6.0mph /  9.7km/h 18.0mph /  29km/h 48% 0.00in /  0mm
19:10 53.2 °F /  11.8 °C 34.0 °F /  1.1 °C 29.78in /  1008.4hPa SW 8.0mph /  12.9km/h 18.0mph /  29km/h 48% 0.00in /  0mm
19:14 53.2 °F /  11.8 °C 34.0 °F /  1.1 °C 29.78in /  1008.4hPa SSW 9.0mph /  14.5km/h 17.0mph /  27.4km/h 48% 0.00in /  0mm
19:19 53.1 °F /  11.7 °C 33.9 °F /  1.1 °C 29.78in /  1008.4hPa SSW 10.0mph /  16.1km/h 18.0mph /  29km/h 48% 0.00in /  0mm
19:24 53.1 °F /  11.7 °C 34.5 °F /  1.4 °C 29.78in /  1008.4hPa SSW 9.0mph /  14.5km/h 18.0mph /  29km/h 49% 0.00in /  0mm
19:30 53.1 °F /  11.7 °C 33.9 °F /  1.1 °C 29.77in /  1008hPa SSW 11.0mph /  17.7km/h 18.0mph /  29km/h 48% 0.00in /  0mm
19:35 53.0 °F /  11.7 °C 33.8 °F /  1 °C 29.77in /  1008hPa SSW 9.0mph /  14.5km/h 19.0mph /  30.6km/h 48% 0.00in /  0mm
19:40 53.0 °F /  11.7 °C 33.8 °F /  1 °C 29.77in /  1008hPa SSW 10.0mph /  16.1km/h 20.0mph /  32.2km/h 48% 0.00in /  0mm
19:44 52.9 °F /  11.6 °C 33.7 °F /  0.9 °C 29.77in /  1008hPa SSW 11.0mph /  17.7km/h 20.0mph /  32.2km/h 48% 0.00in /  0mm
19:50 52.8 °F /  11.6 °C 33.7 °F /  0.9 °C 29.78in /  1008.4hPa SSW 7.0mph /  11.3km/h 18.0mph /  29km/h 48% 0.00in /  0mm
19:54 52.8 °F /  11.6 °C 33.7 °F /  0.9 °C 29.77in /  1008hPa SSW 10.0mph /  16.1km/h 18.0mph /  29km/h 48% 0.00in /  0mm
20:00 52.7 °F /  11.5 °C 33.6 °F /  0.9 °C 29.77in /  1008hPa SSW 11.0mph /  17.7km/h 19.0mph /  30.6km/h 48% 0.00in /  0mm
20:04 52.7 °F /  11.5 °C 33.6 °F /  0.9 °C 29.77in /  1008hPa SSW 9.0mph /  14.5km/h 20.0mph /  32.2km/h 48% 0.00in /  0mm
20:10 52.7 °F /  11.5 °C 33.6 °F /  0.9 °C 29.77in /  1008hPa SSW 10.0mph /  16.1km/h 21.0mph /  33.8km/h 48% 0.00in /  0mm
20:15 52.6 °F /  11.4 °C 33.5 °F /  0.8 °C 29.77in /  1008hPa SSW 10.0mph /  16.1km/h 21.0mph /  33.8km/h 48% 0.00in /  0mm
20:19 52.5 °F /  11.4 °C 33.9 °F /  1.1 °C 29.77in /  1008hPa SSW 12.0mph /  19.3km/h 19.0mph /  30.6km/h 49% 0.00in /  0mm
20:25 52.5 °F /  11.4 °C 33.9 °F /  1.1 °C 29.77in /  1008hPa SSW 9.0mph /  14.5km/h 18.0mph /  29km/h 49% 0.00in /  0mm
20:30 52.5 °F /  11.4 °C 33.9 °F /  1.1 °C 29.77in /  1008hPa SSW 9.0mph /  14.5km/h 21.0mph /  33.8km/h 49% 0.00in /  0mm
20:34 52.4 °F /  11.3 °C 33.8 °F /  1 °C 29.77in /  1008hPa South 12.0mph /  19.3km/h 23.0mph /  37km/h 49% 0.00in /  0mm
20:44 52.4 °F /  11.3 °C 33.8 °F /  1 °C 29.77in /  1008hPa SSW 9.0mph /  14.5km/h 23.0mph /  37km/h 49% 0.00in /  0mm
20:50 52.3 °F /  11.3 °C 33.7 °F /  0.9 °C 29.77in /  1008hPa SSW 10.0mph /  16.1km/h 20.0mph /  32.2km/h 49% 0.00in /  0mm
20:54 52.2 °F /  11.2 °C 33.6 °F /  0.9 °C 29.77in /  1008hPa SSW 11.0mph /  17.7km/h 26.0mph /  41.8km/h 49% 0.00in /  0mm
20:59 52.2 °F /  11.2 °C 33.6 °F /  0.9 °C 29.77in /  1008hPa SSW 11.0mph /  17.7km/h 26.0mph /  41.8km/h 49% 0.00in /  0mm
21:04 52.0 °F /  11.1 °C 33.9 °F /  1.1 °C 29.77in /  1008hPa SSW 8.0mph /  12.9km/h 24.0mph /  38.6km/h 50% 0.00in /  0mm
21:09 52.0 °F /  11.1 °C 33.9 °F /  1.1 °C 29.77in /  1008hPa SSW 12.0mph /  19.3km/h 19.0mph /  30.6km/h 50% 0.00in /  0mm
21:14 52.1 °F /  11.2 °C 34.0 °F /  1.1 °C 29.77in /  1008hPa SSW 13.0mph /  20.9km/h 24.0mph /  38.6km/h 50% 0.00in /  0mm
21:19 52.1 °F /  11.2 °C 34.0 °F /  1.1 °C 29.77in /  1008hPa SSW 9.0mph /  14.5km/h 31.0mph /  49.9km/h 50% 0.00in /  0mm
21:25 52.0 °F /  11.1 °C 33.9 °F /  1.1 °C 29.77in /  1008hPa SSW 11.0mph /  17.7km/h 31.0mph /  49.9km/h 50% 0.00in /  0mm
21:30 52.1 °F /  11.2 °C 34.0 °F /  1.1 °C 29.77in /  1008hPa SSW 11.0mph /  17.7km/h 21.0mph /  33.8km/h 50% 0.00in /  0mm
21:34 52.2 °F /  11.2 °C 34.1 °F /  1.2 °C 29.76in /  1007.7hPa SSW 12.0mph /  19.3km/h 28.0mph /  45.1km/h 50% 0.00in /  0mm
21:39 52.1 °F /  11.2 °C 34.5 °F /  1.4 °C 29.76in /  1007.7hPa SSW 8.0mph /  12.9km/h 28.0mph /  45.1km/h 51% 0.00in /  0mm
21:45 52.0 °F /  11.1 °C 34.4 °F /  1.3 °C 29.76in /  1007.7hPa SSW 7.0mph /  11.3km/h 20.0mph /  32.2km/h 51% 0.00in /  0mm
21:49 52.0 °F /  11.1 °C 34.4 °F /  1.3 °C 29.76in /  1007.7hPa SSW 12.0mph /  19.3km/h 22.0mph /  35.4km/h 51% 0.00in /  0mm
21:54 51.9 °F /  11.1 °C 34.3 °F /  1.3 °C 29.76in /  1007.7hPa SSW 11.0mph /  17.7km/h 22.0mph /  35.4km/h 51% 0.00in /  0mm
21:59 51.9 °F /  11.1 °C 34.3 °F /  1.3 °C 29.76in /  1007.7hPa SSW 7.0mph /  11.3km/h 21.0mph /  33.8km/h 51% 0.00in /  0mm
22:05 51.8 °F /  11 °C 34.7 °F /  1.5 °C 29.76in /  1007.7hPa SSW 10.0mph /  16.1km/h 23.0mph /  37km/h 52% 0.00in /  0mm
22:09 51.8 °F /  11 °C 34.7 °F /  1.5 °C 29.76in /  1007.7hPa SSW 8.0mph /  12.9km/h 23.0mph /  37km/h 52% 0.00in /  0mm
22:14 51.6 °F /  10.9 °C 34.6 °F /  1.4 °C 29.76in /  1007.7hPa SSW 9.0mph /  14.5km/h 21.0mph /  33.8km/h 52% 0.00in /  0mm
22:19 51.5 °F /  10.8 °C 34.9 °F /  1.6 °C 29.76in /  1007.7hPa SSW 8.0mph /  12.9km/h 21.0mph /  33.8km/h 53% 0.00in /  0mm
22:25 51.6 °F /  10.9 °C 34.6 °F /  1.4 °C 29.76in /  1007.7hPa SSW 11.0mph /  17.7km/h 22.0mph /  35.4km/h 52% 0.00in /  0mm
22:29 51.7 °F /  10.9 °C 34.6 °F /  1.4 °C 29.75in /  1007.3hPa SSW 10.0mph /  16.1km/h 23.0mph /  37km/h 52% 0.00in /  0mm
22:35 51.6 °F /  10.9 °C 35.0 °F /  1.7 °C 29.75in /  1007.3hPa SSW 9.0mph /  14.5km/h 23.0mph /  37km/h 53% 0.00in /  0mm
22:39 51.6 °F /  10.9 °C 35.0 °F /  1.7 °C 29.75in /  1007.3hPa SSW 10.0mph /  16.1km/h 20.0mph /  32.2km/h 53% 0.00in /  0mm
22:44 51.5 °F /  10.8 °C 34.9 °F /  1.6 °C 29.75in /  1007.3hPa SSW 9.0mph /  14.5km/h 20.0mph /  32.2km/h 53% 0.00in /  0mm
22:49 51.5 °F /  10.8 °C 34.9 °F /  1.6 °C 29.74in /  1007hPa SSW 12.0mph /  19.3km/h 20.0mph /  32.2km/h 53% 0.00in /  0mm
22:54 51.4 °F /  10.8 °C 34.8 °F /  1.6 °C 29.74in /  1007hPa SSW 10.0mph /  16.1km/h 20.0mph /  32.2km/h 53% 0.00in /  0mm
22:59 51.4 °F /  10.8 °C 34.8 °F /  1.6 °C 29.74in /  1007hPa SSW 8.0mph /  12.9km/h 20.0mph /  32.2km/h 53% 0.00in /  0mm
23:04 51.4 °F /  10.8 °C 34.8 °F /  1.6 °C 29.74in /  1007hPa SSW 11.0mph /  17.7km/h 21.0mph /  33.8km/h 53% 0.00in /  0mm
23:09 51.3 °F /  10.7 °C 34.8 °F /  1.6 °C 29.74in /  1007hPa SSW 8.0mph /  12.9km/h 21.0mph /  33.8km/h 53% 0.00in /  0mm
23:14 51.4 °F /  10.8 °C 34.8 °F /  1.6 °C 29.73in /  1006.7hPa SSW 9.0mph /  14.5km/h 19.0mph /  30.6km/h 53% 0.00in /  0mm
23:19 51.4 °F /  10.8 °C 34.8 °F /  1.6 °C 29.73in /  1006.7hPa South 8.0mph /  12.9km/h 19.0mph /  30.6km/h 53% 0.00in /  0mm
23:25 51.4 °F /  10.8 °C 34.8 °F /  1.6 °C 29.73in /  1006.7hPa SSW 8.0mph /  12.9km/h 21.0mph /  33.8km/h 53% 0.00in /  0mm
23:34 51.3 °F /  10.7 °C 34.8 °F /  1.6 °C 29.73in /  1006.7hPa SSW 7.0mph /  11.3km/h 20.0mph /  32.2km/h 53% 0.00in /  0mm
23:39 51.4 °F /  10.8 °C 34.8 °F /  1.6 °C 29.73in /  1006.7hPa SSW 12.0mph /  19.3km/h 20.0mph /  32.2km/h 53% 0.00in /  0mm
23:44 51.6 °F /  10.9 °C 35.0 °F /  1.7 °C 29.73in /  1006.7hPa SSW 11.0mph /  17.7km/h 19.0mph /  30.6km/h 53% 0.00in /  0mm
23:49 51.6 °F /  10.9 °C 35.0 °F /  1.7 °C 29.73in /  1006.7hPa SSW 7.0mph /  11.3km/h 19.0mph /  30.6km/h 53% 0.00in /  0mm
23:54 51.6 °F /  10.9 °C 35.0 °F /  1.7 °C 29.72in /  1006.3hPa SSW 13.0mph /  20.9km/h 25.0mph /  40.2km/h 53% 0.00in /  0mm
23:59 51.8 °F /  11 °C 34.7 °F /  1.5 °C 29.72in /  1006.3hPa SSW 9.0mph /  14.5km/h 25.0mph /  40.2km/h 52% 0.00in /  0mm
Westford Weather
Compliments of Weather Underground

 
 
Current Radar Loop:

Copyright © WestfordWeather.net 2007-2014. All rights reserved.